createdAt,value
2023-05-13T00:01:16.798Z,99.90
2023-05-13T00:03:44.175Z,99.90
2023-05-13T00:06:10.994Z,99.90
2023-05-13T00:08:37.671Z,99.90
2023-05-13T00:11:04.374Z,99.90
2023-05-13T00:13:31.572Z,99.90
2023-05-13T00:15:58.157Z,99.90
2023-05-13T00:18:24.813Z,99.90
2023-05-13T00:20:51.800Z,99.90
2023-05-13T00:23:18.482Z,99.90
2023-05-13T00:25:45.121Z,99.90
2023-05-13T00:28:13.890Z,99.90
2023-05-13T00:30:42.181Z,99.90
2023-05-13T00:33:08.800Z,99.90
2023-05-13T00:35:35.690Z,99.90
2023-05-13T00:38:02.316Z,99.90
2023-05-13T00:40:29.025Z,99.90
2023-05-13T00:42:55.758Z,99.90
2023-05-13T00:45:22.356Z,99.90
2023-05-13T00:47:49.522Z,99.90
2023-05-13T00:50:16.100Z,99.90
2023-05-13T00:52:42.896Z,99.90
2023-05-13T00:55:10.935Z,99.90
2023-05-13T00:57:38.202Z,99.90
2023-05-13T01:00:05.816Z,99.90
2023-05-13T01:02:39.644Z,99.90
2023-05-13T01:05:24.949Z,99.90
2023-05-13T01:08:00.587Z,99.90
2023-05-13T01:10:35.488Z,99.90
2023-05-13T01:13:08.549Z,99.90
2023-05-13T01:15:40.017Z,99.90
2023-05-13T01:18:13.522Z,99.90
2023-05-13T01:20:42.488Z,99.90
2023-05-13T01:23:13.194Z,99.90
2023-05-13T01:25:40.372Z,99.90
2023-05-13T01:28:08.763Z,99.90
2023-05-13T01:30:36.258Z,99.90
2023-05-13T01:33:03.097Z,99.90
2023-05-13T01:35:31.177Z,99.90
2023-05-13T01:37:57.949Z,99.90
2023-05-13T01:42:57.427Z,99.90
2023-05-13T01:45:23.973Z,99.90
2023-05-13T01:47:50.548Z,99.90
2023-05-13T01:50:17.302Z,99.90
2023-05-13T01:52:43.998Z,99.90
2023-05-13T01:55:10.952Z,99.90
2023-05-13T01:57:37.532Z,99.90
2023-05-13T02:00:05.038Z,99.90
2023-05-13T02:02:31.665Z,99.90
2023-05-13T02:04:58.231Z,99.90
2023-05-13T02:07:24.892Z,99.90
2023-05-13T02:09:55.253Z,99.90
2023-05-13T02:12:21.821Z,99.90
2023-05-13T02:14:48.359Z,99.90
2023-05-13T02:17:15.292Z,99.90
2023-05-13T02:19:41.780Z,99.90
2023-05-13T02:22:08.532Z,99.90
2023-05-13T02:24:36.091Z,99.90
2023-05-13T02:27:02.960Z,99.90
2023-05-13T02:29:29.664Z,99.90
2023-05-13T02:31:56.287Z,99.90
2023-05-13T02:34:22.818Z,99.90
2023-05-13T02:36:49.636Z,99.90
2023-05-13T02:39:16.393Z,99.90
2023-05-13T02:41:44.340Z,99.90
2023-05-13T02:44:11.215Z,99.90
2023-05-13T02:46:37.757Z,99.90
2023-05-13T02:49:04.264Z,99.90
2023-05-13T02:51:30.878Z,99.90
2023-05-13T02:53:57.407Z,99.90
2023-05-13T02:56:23.935Z,99.90
2023-05-13T02:58:50.419Z,99.90
2023-05-13T03:01:17.038Z,99.90
2023-05-13T03:03:43.681Z,99.90
2023-05-13T03:06:11.112Z,99.90
2023-05-13T03:08:37.862Z,99.90
2023-05-13T03:11:04.774Z,99.90
2023-05-13T03:13:31.293Z,99.90
2023-05-13T03:15:57.931Z,99.90
2023-05-13T03:18:24.621Z,99.90
2023-05-13T03:20:51.217Z,99.90
2023-05-13T03:23:17.754Z,99.90
2023-05-13T03:25:44.317Z,99.90
2023-05-13T03:28:10.913Z,99.90
2023-05-13T03:30:37.446Z,99.90
2023-05-13T03:33:04.041Z,99.90
2023-05-13T03:35:30.741Z,99.90
2023-05-13T03:37:57.313Z,99.90
2023-05-13T03:40:24.271Z,99.90
2023-05-13T03:42:51.150Z,99.90
2023-05-13T03:45:17.685Z,99.90
2023-05-13T03:47:44.293Z,99.90
2023-05-13T03:50:11.061Z,99.90
2023-05-13T03:52:37.619Z,99.90
2023-05-13T03:55:04.507Z,99.90
2023-05-13T03:57:31.452Z,99.90
2023-05-13T03:59:58.088Z,99.90
2023-05-13T04:02:24.784Z,99.90
2023-05-13T04:04:51.510Z,99.90
2023-05-13T04:07:18.208Z,99.90
2023-05-13T04:09:44.703Z,99.90
2023-05-13T04:12:11.234Z,99.90
2023-05-13T04:14:37.814Z,99.90
2023-05-13T04:17:04.595Z,99.90
2023-05-13T04:19:31.172Z,99.90
2023-05-13T04:21:57.711Z,99.90
2023-05-13T04:24:24.841Z,99.90
2023-05-13T04:26:51.411Z,99.90
2023-05-13T04:29:17.987Z,99.90
2023-05-13T04:31:45.718Z,99.90
2023-05-13T04:34:12.361Z,99.90
2023-05-13T04:36:38.868Z,99.90
2023-05-13T04:39:05.592Z,99.90
2023-05-13T04:41:32.131Z,99.90
2023-05-13T04:43:58.772Z,99.90
2023-05-13T04:46:25.906Z,99.90
2023-05-13T04:48:52.499Z,99.90
2023-05-13T04:51:19.590Z,99.90
2023-05-13T04:53:46.559Z,99.90
2023-05-13T04:56:13.068Z,99.90
2023-05-13T04:58:39.633Z,99.90
2023-05-13T05:01:06.147Z,99.90
2023-05-13T05:03:32.750Z,99.90
2023-05-13T05:05:59.321Z,99.90
2023-05-13T05:08:25.905Z,99.90
2023-05-13T05:10:52.439Z,99.90
2023-05-13T05:13:19.001Z,99.90
2023-05-13T05:15:45.639Z,99.90
2023-05-13T05:18:13.872Z,99.90
2023-05-13T05:20:40.887Z,99.90
2023-05-13T05:23:08.887Z,99.90
2023-05-13T05:25:35.431Z,99.90
2023-05-13T05:28:04.827Z,99.90
2023-05-13T05:30:39.132Z,99.90
2023-05-13T05:33:07.308Z,99.90
2023-05-13T05:35:37.131Z,99.90
2023-05-13T05:38:07.446Z,99.90
2023-05-13T05:40:37.470Z,99.90
2023-05-13T05:43:04.379Z,99.90
2023-05-13T05:45:30.905Z,99.90
2023-05-13T05:47:57.591Z,99.90
2023-05-13T05:50:24.322Z,99.90
2023-05-13T05:52:50.848Z,99.90
2023-05-13T05:55:17.520Z,99.90
2023-05-13T05:57:44.103Z,99.90
2023-05-13T06:00:11.243Z,99.90
2023-05-13T06:02:38.025Z,99.90
2023-05-13T06:05:05.186Z,99.90
2023-05-13T06:07:31.702Z,99.90
2023-05-13T06:09:58.313Z,99.90
2023-05-13T06:12:24.827Z,99.90
2023-05-13T06:14:51.656Z,99.90
2023-05-13T06:17:18.603Z,99.90
2023-05-13T06:19:45.161Z,99.90
2023-05-13T06:22:12.073Z,99.90
2023-05-13T06:24:39.134Z,99.90
2023-05-13T06:27:05.952Z,99.90
2023-05-13T06:29:32.451Z,99.90
2023-05-13T06:31:58.992Z,99.90
2023-05-13T06:34:25.555Z,99.90
2023-05-13T06:36:52.123Z,99.90
2023-05-13T06:39:18.678Z,99.90
2023-05-13T06:41:45.510Z,99.90
2023-05-13T06:44:12.058Z,99.90
2023-05-13T06:46:38.757Z,99.90
2023-05-13T06:49:05.332Z,99.90
2023-05-13T06:51:32.863Z,99.90
2023-05-13T06:53:59.562Z,99.90
2023-05-13T06:56:26.343Z,99.90
2023-05-13T06:58:53.293Z,99.90
2023-05-13T07:01:20.098Z,99.90
2023-05-13T07:03:46.754Z,99.90
2023-05-13T07:06:13.396Z,99.90
2023-05-13T07:08:40.700Z,99.90
2023-05-13T07:11:07.247Z,99.90
2023-05-13T07:13:34.870Z,99.90
2023-05-13T07:16:02.282Z,99.90
2023-05-13T07:18:29.507Z,99.90
2023-05-13T07:20:59.140Z,99.90
2023-05-13T07:23:25.794Z,99.90
2023-05-13T07:25:52.426Z,99.90
2023-05-13T07:28:20.531Z,99.90
2023-05-13T07:30:47.407Z,99.90
2023-05-13T07:33:14.109Z,99.90
2023-05-13T07:35:40.787Z,99.90
2023-05-13T07:38:09.921Z,99.90
2023-05-13T07:40:36.698Z,99.90
2023-05-13T07:43:03.327Z,99.90
2023-05-13T07:45:29.830Z,99.90
2023-05-13T07:47:56.685Z,99.90
2023-05-13T07:50:23.317Z,99.90
2023-05-13T07:52:51.781Z,99.90
2023-05-13T07:55:18.601Z,99.90
2023-05-13T07:57:45.231Z,99.90
2023-05-13T08:00:12.181Z,99.90
2023-05-13T08:02:39.148Z,99.90
2023-05-13T08:05:06.917Z,99.90
2023-05-13T08:07:33.648Z,99.90
2023-05-13T08:10:02.504Z,99.90
2023-05-13T08:12:28.981Z,99.90
2023-05-13T08:14:55.582Z,99.90
2023-05-13T08:17:22.506Z,99.90
2023-05-13T08:19:49.090Z,99.90
2023-05-13T08:22:15.614Z,99.90
2023-05-13T08:24:43.108Z,99.90
2023-05-13T08:27:09.838Z,99.90
2023-05-13T08:29:36.445Z,99.90
2023-05-13T08:32:03.160Z,99.90
2023-05-13T08:34:29.696Z,99.90
2023-05-13T08:36:56.295Z,99.90
2023-05-13T08:39:22.969Z,97.30
2023-05-13T08:41:52.909Z,92.70
2023-05-13T08:44:21.712Z,91.10
2023-05-13T08:46:54.384Z,85.00
2023-05-13T08:49:21.020Z,80.60
2023-05-13T08:51:47.579Z,75.40
2023-05-13T08:54:16.449Z,67.60
2023-05-13T08:56:43.039Z,64.20
2023-05-13T08:59:09.639Z,60.80
2023-05-13T09:01:36.853Z,59.60
2023-05-13T09:04:06.752Z,56.20
2023-05-13T09:06:33.664Z,56.70
2023-05-13T09:09:00.705Z,55.60
2023-05-13T09:11:29.081Z,54.70
2023-05-13T09:13:59.412Z,54.50
2023-05-13T09:16:28.173Z,54.00
2023-05-13T09:19:03.546Z,52.10
2023-05-13T09:21:32.289Z,51.40
2023-05-13T09:24:18.716Z,53.30
2023-05-13T09:26:46.058Z,51.80
2023-05-13T09:29:26.483Z,51.80
2023-05-13T09:31:58.034Z,51.50
2023-05-13T09:34:33.269Z,50.80
2023-05-13T09:37:06.286Z,51.10
2023-05-13T09:39:41.077Z,50.10
2023-05-13T09:42:17.853Z,51.40
2023-05-13T09:44:48.802Z,50.50
2023-05-13T09:47:16.198Z,50.60
2023-05-13T09:49:44.418Z,52.60
2023-05-13T09:52:12.031Z,51.20
2023-05-13T09:54:38.923Z,51.20
2023-05-13T09:57:06.042Z,49.10
2023-05-13T09:59:35.857Z,49.60
2023-05-13T10:02:07.482Z,49.00
2023-05-13T10:04:34.559Z,48.90
2023-05-13T10:07:04.003Z,49.00
2023-05-13T10:09:35.304Z,48.70
2023-05-13T10:12:02.999Z,48.40
2023-05-13T10:14:30.802Z,48.50
2023-05-13T10:16:59.011Z,48.60
2023-05-13T10:19:26.456Z,49.80
2023-05-13T10:21:54.165Z,47.30
2023-05-13T10:24:22.027Z,48.90
2023-05-13T10:26:52.186Z,48.10
2023-05-13T10:29:19.409Z,48.50
2023-05-13T10:31:47.876Z,49.00
2023-05-13T10:34:14.599Z,49.80
2023-05-13T10:37:11.067Z,49.20
2023-05-13T10:39:51.971Z,48.60
2023-05-13T10:42:42.668Z,48.70
2023-05-13T10:45:10.235Z,47.60
2023-05-13T10:47:38.114Z,48.80
2023-05-13T10:50:05.887Z,47.50
2023-05-13T10:52:46.032Z,44.80
2023-05-13T10:55:18.003Z,46.90
2023-05-13T10:58:05.057Z,49.00
2023-05-13T11:00:32.201Z,50.50
2023-05-13T11:03:08.979Z,50.70
2023-05-13T11:05:38.003Z,50.70
2023-05-13T11:08:04.964Z,52.20
2023-05-13T11:10:31.817Z,54.30
2023-05-13T11:13:16.943Z,55.50
2023-05-13T11:15:53.102Z,57.20
2023-05-13T11:18:20.853Z,60.20
2023-05-13T11:20:53.480Z,62.50
2023-05-13T11:23:21.120Z,62.30
2023-05-13T11:26:12.554Z,63.30
2023-05-13T11:28:59.285Z,64.20
2023-05-13T11:31:47.606Z,66.10
2023-05-13T11:34:18.326Z,64.70
2023-05-13T11:36:50.616Z,67.30
2023-05-13T11:39:18.814Z,66.90
2023-05-13T11:41:52.778Z,64.00
2023-05-13T11:44:21.487Z,62.30
2023-05-13T11:46:55.476Z,62.90
2023-05-13T11:49:40.844Z,65.70
2023-05-13T11:52:08.973Z,65.80
2023-05-13T11:54:54.239Z,64.20
2023-05-13T11:57:25.965Z,65.20
2023-05-13T12:00:02.230Z,66.90
2023-05-13T12:02:31.091Z,66.80
2023-05-13T12:05:01.803Z,68.00
2023-05-13T12:07:28.481Z,67.80
2023-05-13T12:09:58.623Z,67.70
2023-05-13T12:12:26.960Z,69.10
2023-05-13T12:14:55.305Z,67.60
2023-05-13T12:17:22.307Z,69.80
2023-05-13T12:20:08.790Z,69.60
2023-05-13T12:22:36.348Z,70.90
2023-05-13T12:25:38.493Z,69.90
2023-05-13T12:28:11.078Z,69.80
2023-05-13T12:30:42.489Z,68.30
2023-05-13T12:33:16.776Z,69.90
2023-05-13T12:35:44.190Z,64.40
2023-05-13T12:38:16.271Z,64.50
2023-05-13T12:40:43.491Z,66.60
2023-05-13T12:43:11.073Z,65.70
2023-05-13T12:45:41.558Z,66.70
2023-05-13T12:48:09.892Z,66.30
2023-05-13T12:50:36.493Z,67.10
2023-05-13T12:53:03.213Z,69.70
2023-05-13T12:55:30.018Z,68.90
2023-05-13T12:58:00.400Z,69.00
2023-05-13T13:00:27.740Z,70.20
2023-05-13T13:02:54.488Z,71.40
2023-05-13T13:05:22.470Z,69.40
2023-05-13T13:07:49.975Z,68.90
2023-05-13T13:10:16.695Z,69.00
2023-05-13T13:12:43.421Z,68.90
2023-05-13T13:15:10.726Z,66.40
2023-05-13T13:17:37.585Z,65.30
2023-05-13T13:20:06.773Z,64.00
2023-05-13T13:22:34.289Z,66.10
2023-05-13T13:25:00.901Z,63.10
2023-05-13T13:27:27.573Z,63.50
2023-05-13T13:29:54.110Z,62.90
2023-05-13T13:32:20.813Z,64.40
2023-05-13T13:34:47.529Z,63.70
2023-05-13T13:37:14.069Z,64.60
2023-05-13T13:39:40.631Z,65.70
2023-05-13T13:42:07.475Z,66.50
2023-05-13T13:44:35.482Z,66.60
2023-05-13T13:47:02.065Z,66.80
2023-05-13T13:49:28.614Z,68.30
2023-05-13T13:51:55.573Z,66.80
2023-05-13T13:54:22.145Z,66.60
2023-05-13T13:56:48.754Z,66.90
2023-05-13T13:59:15.371Z,66.50
2023-05-13T14:01:43.765Z,66.80
2023-05-13T14:04:12.300Z,69.40
2023-05-13T14:06:39.011Z,67.40
2023-05-13T14:09:06.361Z,67.40
2023-05-13T14:11:33.095Z,69.30
2023-05-13T14:13:59.674Z,67.70
2023-05-13T14:16:26.217Z,65.40
2023-05-13T14:18:52.795Z,67.00
2023-05-13T14:21:19.653Z,65.50
2023-05-13T14:23:46.224Z,67.90
2023-05-13T14:26:15.399Z,67.10
2023-05-13T14:28:42.508Z,68.00
2023-05-13T14:31:09.320Z,68.60
2023-05-13T14:33:36.291Z,68.10
2023-05-13T14:36:03.105Z,70.20
2023-05-13T14:38:29.952Z,67.50
2023-05-13T14:40:56.538Z,67.20
2023-05-13T14:43:23.909Z,64.00
2023-05-13T14:45:50.590Z,62.30
2023-05-13T14:48:17.272Z,64.00
2023-05-13T14:50:45.179Z,66.00
2023-05-13T14:53:12.644Z,61.60
2023-05-13T14:55:39.306Z,61.00
2023-05-13T14:58:08.921Z,62.90
2023-05-13T15:00:37.561Z,64.50
2023-05-13T15:03:05.047Z,64.40
2023-05-13T15:05:31.736Z,63.70
2023-05-13T15:07:58.826Z,64.10
2023-05-13T15:10:25.409Z,66.50
2023-05-13T15:12:52.006Z,63.10
2023-05-13T15:15:18.635Z,63.40
2023-05-13T15:17:45.319Z,63.30
2023-05-13T15:20:12.435Z,65.30
2023-05-13T15:22:39.020Z,63.60
2023-05-13T15:25:05.989Z,64.50
2023-05-13T15:27:33.850Z,63.10
2023-05-13T15:30:00.525Z,64.00
2023-05-13T15:32:27.235Z,65.70
2023-05-13T15:34:53.901Z,63.80
2023-05-13T15:37:20.581Z,64.20
2023-05-13T15:39:47.417Z,63.40
2023-05-13T15:42:14.153Z,65.20
2023-05-13T15:44:40.671Z,64.40
2023-05-13T15:47:07.377Z,63.70
2023-05-13T15:49:34.165Z,61.80
2023-05-13T15:52:01.390Z,63.50
2023-05-13T15:54:27.940Z,66.40
2023-05-13T15:56:56.294Z,64.50
2023-05-13T15:59:22.918Z,65.20
2023-05-13T16:01:49.568Z,63.90
2023-05-13T16:04:16.339Z,64.10
2023-05-13T16:06:42.933Z,65.00
2023-05-13T16:09:09.545Z,67.60
2023-05-13T16:11:36.129Z,66.60
2023-05-13T16:14:02.718Z,67.90
2023-05-13T16:16:29.314Z,69.00
2023-05-13T16:18:55.878Z,68.80
2023-05-13T16:21:22.508Z,68.60
2023-05-13T16:23:50.857Z,67.00
2023-05-13T16:26:17.590Z,66.90
2023-05-13T16:28:44.316Z,65.80
2023-05-13T16:31:10.999Z,67.70
2023-05-13T16:33:37.541Z,69.10
2023-05-13T16:36:04.771Z,68.40
2023-05-13T16:38:34.779Z,68.10
2023-05-13T16:41:01.829Z,68.20
2023-05-13T16:43:28.755Z,67.50
2023-05-13T16:45:55.825Z,68.80
2023-05-13T16:48:22.457Z,70.50
2023-05-13T16:50:49.333Z,70.50
2023-05-13T16:53:15.948Z,70.70
2023-05-13T16:55:42.571Z,69.90
2023-05-13T16:58:09.088Z,71.90
2023-05-13T17:00:35.609Z,71.40
2023-05-13T17:03:02.337Z,71.40
2023-05-13T17:05:30.074Z,71.70
2023-05-13T17:07:56.589Z,71.70
2023-05-13T17:10:23.368Z,72.40
2023-05-13T17:12:49.973Z,73.80
2023-05-13T17:15:16.666Z,72.70
2023-05-13T17:17:43.246Z,74.50
2023-05-13T17:20:10.530Z,74.20
2023-05-13T17:22:37.153Z,74.40
2023-05-13T17:25:04.111Z,74.80
2023-05-13T17:27:30.657Z,74.50
2023-05-13T17:29:57.179Z,75.40
2023-05-13T17:32:24.234Z,74.80
2023-05-13T17:34:51.186Z,76.20
2023-05-13T17:37:17.722Z,75.10
2023-05-13T17:39:44.280Z,76.50
2023-05-13T17:42:10.773Z,77.20
2023-05-13T17:44:37.374Z,79.30
2023-05-13T17:47:04.068Z,78.60
2023-05-13T17:49:30.878Z,79.30
2023-05-13T17:51:57.594Z,80.30
2023-05-13T17:54:24.150Z,79.00
2023-05-13T17:56:51.170Z,80.30
2023-05-13T17:59:17.753Z,80.90
2023-05-13T18:01:44.333Z,80.50
2023-05-13T18:04:10.987Z,80.20
2023-05-13T18:06:37.645Z,81.40
2023-05-13T18:09:04.283Z,83.00
2023-05-13T18:11:30.801Z,84.20
2023-05-13T18:13:57.298Z,84.30
2023-05-13T18:16:23.915Z,84.70
2023-05-13T18:18:50.487Z,86.70
2023-05-13T18:21:17.030Z,87.60
2023-05-13T18:23:46.604Z,88.70
2023-05-13T18:26:13.230Z,88.90
2023-05-13T18:28:41.524Z,90.50
2023-05-13T18:31:08.176Z,90.70
2023-05-13T18:33:34.734Z,90.80
2023-05-13T18:36:01.609Z,91.70
2023-05-13T18:38:28.274Z,91.30
2023-05-13T18:40:54.978Z,91.60
2023-05-13T18:43:21.478Z,92.40
2023-05-13T18:45:48.056Z,93.20
2023-05-13T18:48:14.684Z,93.20
2023-05-13T18:50:41.304Z,94.30
2023-05-13T18:53:07.868Z,95.00
2023-05-13T18:55:34.698Z,95.90
2023-05-13T18:58:01.291Z,96.80
2023-05-13T19:00:27.826Z,98.00
2023-05-13T19:02:54.577Z,99.00
2023-05-13T19:05:21.250Z,99.70
2023-05-13T19:07:47.809Z,99.90
2023-05-13T19:10:14.892Z,99.90
2023-05-13T19:12:41.710Z,99.90
2023-05-13T19:15:08.608Z,99.90
2023-05-13T19:17:35.543Z,99.90
2023-05-13T19:20:02.956Z,99.90
2023-05-13T19:22:29.447Z,99.90
2023-05-13T19:24:56.011Z,99.90
2023-05-13T19:27:22.635Z,99.90
2023-05-13T19:29:49.454Z,99.90
2023-05-13T19:32:16.574Z,99.90
2023-05-13T19:34:43.096Z,99.90
2023-05-13T19:37:10.034Z,99.90
2023-05-13T19:39:36.628Z,99.90
2023-05-13T19:42:03.193Z,99.90
2023-05-13T19:44:31.741Z,99.90
2023-05-13T19:46:58.459Z,99.90
2023-05-13T19:49:25.387Z,99.90
2023-05-13T19:51:52.886Z,99.90
2023-05-13T19:54:19.715Z,99.90
2023-05-13T19:56:46.937Z,99.90
2023-05-13T19:59:13.519Z,99.90
2023-05-13T20:01:40.269Z,99.90
2023-05-13T20:04:06.951Z,99.90
2023-05-13T20:06:33.787Z,99.90
2023-05-13T20:09:01.970Z,99.90
2023-05-13T20:11:28.543Z,99.90
2023-05-13T20:13:55.727Z,99.90
2023-05-13T20:16:22.343Z,99.90
2023-05-13T20:18:49.427Z,99.90
2023-05-13T20:21:16.243Z,99.90
2023-05-13T20:23:43.573Z,99.90
2023-05-13T20:26:10.130Z,99.90
2023-05-13T20:28:37.654Z,99.90
2023-05-13T20:31:04.622Z,99.90
2023-05-13T20:33:31.214Z,99.90
2023-05-13T20:35:58.282Z,99.90
2023-05-13T20:38:25.175Z,99.90
2023-05-13T20:40:51.802Z,99.90
2023-05-13T20:43:18.762Z,99.90
2023-05-13T20:45:45.315Z,99.90
2023-05-13T20:48:13.325Z,99.90
2023-05-13T20:50:39.936Z,99.90
2023-05-13T20:53:06.980Z,99.90
2023-05-13T20:55:33.594Z,99.90
2023-05-13T20:58:00.271Z,99.90
2023-05-13T21:00:26.806Z,99.90
2023-05-13T21:02:53.861Z,99.90
2023-05-13T21:05:20.685Z,99.90
2023-05-13T21:07:47.325Z,99.90
2023-05-13T21:10:13.927Z,99.90
2023-05-13T21:12:41.025Z,99.90
2023-05-13T21:15:08.242Z,99.90
2023-05-13T21:17:34.875Z,99.90
2023-05-13T21:20:01.470Z,99.90
2023-05-13T21:22:28.021Z,99.90
2023-05-13T21:24:54.566Z,99.90
2023-05-13T21:27:21.440Z,99.90
2023-05-13T21:29:48.046Z,99.90
2023-05-13T21:32:15.026Z,99.90
2023-05-13T21:34:41.603Z,99.90
2023-05-13T21:37:08.271Z,99.90
2023-05-13T21:39:34.821Z,99.90
2023-05-13T21:42:01.477Z,99.90
2023-05-13T21:44:29.037Z,99.90
2023-05-13T21:46:55.802Z,99.90
2023-05-13T21:49:22.324Z,99.90
2023-05-13T21:51:48.894Z,99.90
2023-05-13T21:54:15.647Z,99.90
2023-05-13T21:56:42.230Z,99.90
2023-05-13T21:59:08.793Z,99.90
2023-05-13T22:01:35.388Z,99.90
2023-05-13T22:04:01.947Z,99.90
2023-05-13T22:06:28.449Z,99.90
2023-05-13T22:08:55.275Z,99.90
2023-05-13T22:11:21.981Z,99.90
2023-05-13T22:13:48.611Z,99.90
2023-05-13T22:16:15.387Z,99.90
2023-05-13T22:18:42.125Z,99.90
2023-05-13T22:21:08.787Z,99.90
2023-05-13T22:23:35.545Z,99.90
2023-05-13T22:26:02.181Z,99.90
2023-05-13T22:28:28.668Z,99.90
2023-05-13T22:30:56.766Z,99.90
2023-05-13T22:33:23.344Z,99.90
2023-05-13T22:35:49.957Z,99.90
2023-05-13T22:38:16.576Z,99.90
2023-05-13T22:40:43.109Z,99.90
2023-05-13T22:43:09.601Z,99.90
2023-05-13T22:45:36.829Z,99.90
2023-05-13T22:48:03.713Z,99.90
2023-05-13T22:50:30.356Z,99.90
2023-05-13T22:52:56.895Z,99.90
2023-05-13T22:55:23.710Z,99.90
2023-05-13T22:57:50.312Z,99.90
2023-05-13T23:00:17.103Z,99.90
2023-05-13T23:02:43.740Z,99.90
2023-05-13T23:05:10.398Z,99.90
2023-05-13T23:07:36.995Z,99.90
2023-05-13T23:10:03.788Z,99.90
2023-05-13T23:12:30.514Z,99.90
2023-05-13T23:14:57.293Z,99.90
2023-05-13T23:17:23.955Z,99.90
2023-05-13T23:19:50.945Z,99.90
2023-05-13T23:22:18.241Z,99.90
2023-05-13T23:24:45.223Z,99.90
2023-05-13T23:27:12.564Z,99.90
2023-05-13T23:29:39.222Z,99.90
2023-05-13T23:32:07.101Z,99.90
2023-05-13T23:34:33.926Z,99.90
2023-05-13T23:37:00.550Z,99.90
2023-05-13T23:39:27.101Z,99.90
2023-05-13T23:41:53.664Z,99.90
2023-05-13T23:44:20.265Z,99.90
2023-05-13T23:46:46.786Z,99.90
2023-05-13T23:49:13.326Z,99.90
2023-05-13T23:51:39.884Z,99.90
2023-05-13T23:54:08.116Z,99.90
2023-05-13T23:56:35.002Z,99.90
2023-05-13T23:59:01.602Z,99.90
